createdAt,value
2022-10-22T00:00:00.911Z,13.76
2022-10-22T00:02:28.023Z,13.46
2022-10-22T00:04:57.095Z,13.41
2022-10-22T00:07:24.255Z,13.79
2022-10-22T00:09:51.067Z,13.57
2022-10-22T00:12:18.216Z,13.75
2022-10-22T00:14:44.988Z,13.48
2022-10-22T00:17:11.969Z,13.61
2022-10-22T00:19:40.048Z,13.41
2022-10-22T00:22:07.888Z,13.36
2022-10-22T00:24:35.429Z,13.55
2022-10-22T00:27:03.304Z,13.88
2022-10-22T00:29:30.012Z,13.75
2022-10-22T00:31:57.011Z,13.68
2022-10-22T00:34:24.331Z,13.85
2022-10-22T00:36:52.017Z,13.69
2022-10-22T00:39:21.832Z,13.81
2022-10-22T00:41:50.322Z,13.82
2022-10-22T00:44:54.609Z,13.89
2022-10-22T00:47:23.996Z,13.64
2022-10-22T00:49:52.090Z,13.63
2022-10-22T00:52:19.466Z,13.85
2022-10-22T00:54:46.225Z,13.88
2022-10-22T00:57:13.084Z,13.63
2022-10-22T00:59:39.857Z,13.53
2022-10-22T01:02:06.524Z,13.52
2022-10-22T01:04:33.254Z,13.52
2022-10-22T01:07:00.076Z,13.61
2022-10-22T01:09:39.899Z,13.44
2022-10-22T01:12:27.623Z,13.86
2022-10-22T01:15:17.215Z,13.80
2022-10-22T01:17:56.271Z,13.63
2022-10-22T01:20:28.951Z,13.78
2022-10-22T01:23:13.908Z,13.62
2022-10-22T01:26:00.760Z,13.55
2022-10-22T01:29:00.335Z,13.65
2022-10-22T01:31:33.695Z,13.82
2022-10-22T01:34:02.589Z,13.62
2022-10-22T01:36:34.917Z,13.61
2022-10-22T01:39:02.365Z,13.67
2022-10-22T01:41:30.112Z,13.85
2022-10-22T01:43:57.192Z,13.65
2022-10-22T01:46:26.408Z,13.90
2022-10-22T01:49:24.710Z,14.00
2022-10-22T01:52:16.111Z,14.00
2022-10-22T01:54:49.676Z,13.94
2022-10-22T01:57:41.362Z,13.98
2022-10-22T02:00:12.405Z,13.73
2022-10-22T02:03:05.418Z,13.77
2022-10-22T02:05:43.168Z,13.93
2022-10-22T02:08:13.016Z,13.67
2022-10-22T02:10:43.355Z,13.96
2022-10-22T02:13:16.043Z,13.72
2022-10-22T02:15:45.470Z,13.55
2022-10-22T02:18:13.317Z,13.58
2022-10-22T02:20:42.380Z,13.84
2022-10-22T02:23:10.489Z,13.73
2022-10-22T02:25:41.954Z,13.63
2022-10-22T02:28:29.564Z,13.60
2022-10-22T02:31:01.903Z,13.99
2022-10-22T02:33:33.239Z,14.08
2022-10-22T02:36:02.759Z,13.78
2022-10-22T02:38:30.560Z,13.79
2022-10-22T02:40:57.712Z,13.83
2022-10-22T02:43:25.657Z,13.89
2022-10-22T02:45:52.382Z,13.84
2022-10-22T02:50:45.679Z,13.69
2022-10-22T02:53:12.380Z,13.91
2022-10-22T02:55:39.113Z,13.84
2022-10-22T02:58:05.812Z,13.78
2022-10-22T03:00:32.546Z,13.89
2022-10-22T03:02:59.309Z,14.00
2022-10-22T03:05:26.007Z,14.00
2022-10-22T03:07:52.708Z,14.00
2022-10-22T03:10:19.370Z,14.15
2022-10-22T03:12:46.162Z,13.94
2022-10-22T03:15:13.251Z,13.96
2022-10-22T03:17:40.204Z,13.95
2022-10-22T03:20:07.748Z,13.91
2022-10-22T03:22:36.667Z,13.74
2022-10-22T03:25:08.183Z,13.75
2022-10-22T03:27:37.876Z,13.91
2022-10-22T03:30:07.466Z,13.97
2022-10-22T03:32:34.144Z,13.99
2022-10-22T03:37:27.879Z,14.03
2022-10-22T03:39:55.576Z,13.97
2022-10-22T03:42:22.774Z,13.88
2022-10-22T03:44:49.843Z,13.80
2022-10-22T03:47:16.557Z,13.76
2022-10-22T03:49:43.323Z,14.08
2022-10-22T03:52:12.326Z,13.76
2022-10-22T03:54:39.724Z,13.94
2022-10-22T03:57:06.957Z,13.93
2022-10-22T03:59:44.627Z,14.03
2022-10-22T04:02:13.094Z,14.14
2022-10-22T04:04:40.105Z,14.27
2022-10-22T04:07:08.065Z,14.02
2022-10-22T04:09:35.365Z,14.09
2022-10-22T04:12:02.286Z,13.99
2022-10-22T04:14:28.977Z,13.93
2022-10-22T04:16:55.716Z,14.03
2022-10-22T04:19:22.411Z,14.05
2022-10-22T04:21:49.249Z,14.03
2022-10-22T04:24:15.922Z,14.07
2022-10-22T04:26:42.700Z,14.07
2022-10-22T04:29:13.421Z,14.03
2022-10-22T04:31:42.878Z,14.04
2022-10-22T04:34:09.617Z,14.05
2022-10-22T04:36:36.360Z,14.04
2022-10-22T04:39:04.742Z,13.96
2022-10-22T04:41:40.445Z,14.06
2022-10-22T04:44:11.094Z,14.25
2022-10-22T04:46:42.795Z,14.21
2022-10-22T04:49:09.469Z,14.05
2022-10-22T04:51:36.204Z,14.07
2022-10-22T04:54:02.963Z,14.07
2022-10-22T04:56:31.013Z,14.20
2022-10-22T04:59:01.652Z,14.05
2022-10-22T05:01:31.626Z,14.08
2022-10-22T05:04:00.761Z,14.29
2022-10-22T05:06:29.336Z,14.01
2022-10-22T05:09:01.858Z,14.11
2022-10-22T05:11:31.960Z,14.33
2022-10-22T05:14:00.055Z,13.98
2022-10-22T05:16:28.789Z,14.10
2022-10-22T05:18:55.548Z,14.08
2022-10-22T05:21:22.602Z,14.03
2022-10-22T05:23:50.815Z,14.06
2022-10-22T05:26:19.538Z,14.25
2022-10-22T05:28:48.325Z,14.15
2022-10-22T05:31:15.776Z,14.24
2022-10-22T05:33:43.836Z,14.18
2022-10-22T05:36:16.885Z,14.08
2022-10-22T05:38:43.661Z,14.08
2022-10-22T05:41:22.176Z,14.19
2022-10-22T05:43:48.986Z,14.08
2022-10-22T05:46:22.901Z,14.00
2022-10-22T05:48:56.781Z,14.24
2022-10-22T05:51:24.715Z,13.89
2022-10-22T05:53:57.031Z,14.27
2022-10-22T05:56:24.590Z,14.22
2022-10-22T05:58:52.019Z,14.13
2022-10-22T06:01:18.762Z,14.28
2022-10-22T06:03:46.517Z,13.96
2022-10-22T06:06:22.213Z,14.30
2022-10-22T06:08:51.020Z,14.14
2022-10-22T06:11:19.254Z,14.29
2022-10-22T06:13:47.004Z,14.27
2022-10-22T06:16:13.810Z,14.29
2022-10-22T06:18:41.203Z,14.20
2022-10-22T06:21:10.910Z,14.36
2022-10-22T06:23:38.937Z,14.00
2022-10-22T06:26:06.319Z,14.31
2022-10-22T06:28:37.093Z,13.90
2022-10-22T06:31:04.425Z,14.10
2022-10-22T06:33:34.365Z,14.23
2022-10-22T06:36:13.720Z,14.26
2022-10-22T06:38:41.055Z,14.13
2022-10-22T06:41:17.214Z,14.17
2022-10-22T06:43:50.007Z,14.18
2022-10-22T06:46:20.345Z,13.98
2022-10-22T06:48:52.567Z,14.02
2022-10-22T06:51:19.803Z,14.05
2022-10-22T06:53:47.184Z,14.09
2022-10-22T06:56:16.630Z,13.97
2022-10-22T06:58:43.512Z,14.00
2022-10-22T07:01:13.148Z,14.09
2022-10-22T07:03:41.124Z,13.96
2022-10-22T07:06:10.432Z,14.24
2022-10-22T07:08:38.234Z,13.98
2022-10-22T07:11:10.872Z,14.31
2022-10-22T07:13:37.754Z,14.03
2022-10-22T07:16:06.426Z,14.12
2022-10-22T07:18:34.639Z,14.08
2022-10-22T07:21:01.793Z,14.15
2022-10-22T07:23:28.906Z,14.14
2022-10-22T07:28:24.153Z,14.33
2022-10-22T09:17:41.597Z,14.69
2022-10-22T09:29:39.634Z,14.59
2022-10-22T09:32:15.502Z,14.81
2022-10-22T09:56:43.776Z,14.84
2022-10-22T10:02:19.982Z,14.97
2022-10-22T10:40:20.610Z,15.53
2022-10-22T10:43:17.656Z,15.55
2022-10-22T10:46:02.484Z,15.29
2022-10-22T10:48:52.601Z,15.55
2022-10-22T10:51:50.659Z,15.54
2022-10-22T10:54:32.758Z,15.63
2022-10-22T11:00:21.319Z,15.81
2022-10-22T11:19:51.691Z,16.26
2022-10-22T11:23:00.394Z,16.22
2022-10-22T11:25:40.171Z,15.97
2022-10-22T11:28:27.831Z,16.32
2022-10-22T11:34:00.461Z,16.24
2022-10-22T11:36:38.857Z,16.17
2022-10-22T11:39:06.233Z,15.82
2022-10-22T11:41:34.770Z,15.91
2022-10-22T11:44:07.617Z,16.04
2022-10-22T11:49:44.311Z,15.87
2022-10-22T11:52:37.034Z,16.11
2022-10-22T11:55:24.194Z,16.05
2022-10-22T11:57:50.821Z,16.25
2022-10-22T12:00:35.739Z,16.37
2022-10-22T12:03:16.122Z,16.35
2022-10-22T12:05:44.212Z,16.65
2022-10-22T12:08:14.834Z,16.78
2022-10-22T12:11:00.404Z,16.73
2022-10-22T12:13:58.872Z,16.77
2022-10-22T12:16:37.955Z,17.06
2022-10-22T12:19:22.525Z,16.97
2022-10-22T12:21:54.559Z,17.24
2022-10-22T12:24:24.006Z,17.19
2022-10-22T12:26:52.871Z,16.96
2022-10-22T12:29:26.670Z,17.15
2022-10-22T12:31:55.060Z,17.26
2022-10-22T12:34:24.141Z,16.98
2022-10-22T12:36:53.367Z,16.91
2022-10-22T12:39:22.860Z,16.68
2022-10-22T12:41:49.571Z,16.83
2022-10-22T12:44:17.967Z,16.91
2022-10-22T12:46:47.115Z,16.81
2022-10-22T12:49:32.056Z,16.77
2022-10-22T12:52:04.069Z,16.65
2022-10-22T12:54:33.951Z,16.34
2022-10-22T12:57:01.544Z,16.62
2022-10-22T12:59:34.143Z,16.70
2022-10-22T13:02:01.772Z,16.61
2022-10-22T13:04:33.571Z,16.75
2022-10-22T13:07:12.337Z,16.89
2022-10-22T13:09:44.900Z,16.68
2022-10-22T13:12:18.700Z,16.81
2022-10-22T13:14:46.898Z,16.73
2022-10-22T13:17:18.049Z,16.86
2022-10-22T13:20:05.543Z,16.61
2022-10-22T13:22:40.583Z,16.60
2022-10-22T13:25:17.294Z,16.78
2022-10-22T13:27:45.336Z,16.66
2022-10-22T13:30:20.691Z,16.60
2022-10-22T13:33:17.898Z,16.77
2022-10-22T13:35:44.620Z,16.91
2022-10-22T13:38:22.624Z,17.17
2022-10-22T13:40:50.522Z,17.45
2022-10-22T13:43:18.613Z,17.35
2022-10-22T13:45:48.029Z,17.19
2022-10-22T13:48:22.090Z,16.95
2022-10-22T13:50:50.392Z,16.70
2022-10-22T13:53:20.936Z,17.00
2022-10-22T13:55:48.040Z,17.09
2022-10-22T14:47:44.793Z,15.93
2022-10-22T14:58:26.788Z,15.36
2022-10-22T15:00:53.562Z,15.26
2022-10-22T15:03:20.276Z,15.21
2022-10-22T15:05:47.046Z,15.27
2022-10-22T15:08:15.096Z,15.51
2022-10-22T15:10:42.045Z,15.21
2022-10-22T15:13:09.441Z,15.13
2022-10-22T15:15:39.525Z,15.33
2022-10-22T15:18:07.033Z,15.65
2022-10-22T15:20:33.740Z,15.65
2022-10-22T15:23:00.995Z,15.29
2022-10-22T15:25:28.799Z,15.37
2022-10-22T15:27:59.664Z,15.35
2022-10-22T15:30:31.700Z,15.46
2022-10-22T15:32:58.444Z,15.32
2022-10-22T15:35:27.822Z,15.51
2022-10-22T15:37:56.093Z,15.28
2022-10-22T15:40:27.137Z,15.42
2022-10-22T15:42:55.295Z,15.25
2022-10-22T15:45:22.693Z,15.52
2022-10-22T15:47:50.059Z,15.64
2022-10-22T15:52:57.691Z,15.61
2022-10-22T15:55:24.673Z,15.30
2022-10-22T15:57:57.971Z,15.59
2022-10-22T16:00:28.099Z,15.31
2022-10-22T16:02:56.741Z,15.22
2022-10-22T16:08:05.087Z,15.11
2022-10-22T16:10:36.600Z,15.44
2022-10-22T16:13:03.923Z,15.06
2022-10-22T16:18:11.375Z,15.07
2022-10-22T16:20:46.799Z,15.05
2022-10-22T16:23:18.118Z,15.06
2022-10-22T16:25:50.645Z,15.13
2022-10-22T16:28:17.663Z,15.20
2022-10-22T16:30:46.770Z,15.01
2022-10-22T16:33:16.245Z,14.87
2022-10-22T16:35:43.255Z,15.14
2022-10-22T16:38:15.424Z,15.06
2022-10-22T16:43:22.996Z,14.72
2022-10-22T16:45:51.344Z,14.50
2022-10-22T16:48:18.971Z,14.74
2022-10-22T16:50:45.783Z,14.66
2022-10-22T16:53:12.630Z,14.73
2022-10-22T19:07:25.018Z,14.12
2022-10-22T19:09:52.421Z,14.07
2022-10-22T19:12:22.275Z,14.16
2022-10-22T19:14:50.171Z,14.22
2022-10-22T19:17:17.460Z,14.22
2022-10-22T19:19:45.467Z,14.04
2022-10-22T19:22:16.910Z,14.16
2022-10-22T19:31:08.078Z,13.61
2022-10-22T19:33:40.259Z,14.02
2022-10-22T19:36:12.133Z,14.08
2022-10-22T19:38:42.112Z,14.04
2022-10-22T19:41:12.617Z,13.72
2022-10-22T19:43:40.617Z,13.62
2022-10-22T19:46:08.122Z,13.66
2022-10-22T19:48:36.210Z,13.95
2022-10-22T19:51:06.314Z,13.89
2022-10-22T19:53:33.594Z,14.04
2022-10-22T19:56:00.970Z,13.71
2022-10-22T19:58:28.703Z,13.89
2022-10-22T20:00:55.485Z,13.99
2022-10-22T20:03:23.301Z,13.49
2022-10-22T20:05:53.067Z,13.30
2022-10-22T20:08:19.744Z,13.93
2022-10-22T20:10:49.420Z,14.18
2022-10-22T20:13:16.719Z,13.44
2022-10-22T20:15:43.584Z,13.30
2022-10-22T20:18:10.320Z,13.69
2022-10-22T20:20:40.311Z,13.59
2022-10-22T20:23:08.743Z,13.29
2022-10-22T20:25:40.673Z,13.95
2022-10-22T20:28:07.452Z,13.85
2022-10-22T20:30:34.332Z,13.77
2022-10-22T20:33:01.078Z,13.78
2022-10-22T20:35:27.795Z,13.85
2022-10-22T20:37:54.475Z,13.71
2022-10-22T20:40:21.168Z,13.49
2022-10-22T20:42:49.520Z,13.75
2022-10-22T20:45:16.817Z,13.64
2022-10-22T20:47:51.415Z,13.84
2022-10-22T20:50:31.613Z,13.61
2022-10-22T20:52:58.780Z,13.74
2022-10-22T20:55:25.732Z,13.73
2022-10-22T20:57:52.448Z,13.54
2022-10-22T21:00:19.227Z,13.60
2022-10-22T21:02:45.963Z,13.43
2022-10-22T21:05:12.715Z,13.45
2022-10-22T21:07:39.664Z,13.21
2022-10-22T21:10:07.067Z,13.61
2022-10-22T21:12:33.769Z,13.33
2022-10-22T21:15:00.447Z,13.37
2022-10-22T21:17:27.248Z,13.64
2022-10-22T21:19:53.941Z,13.57
2022-10-22T21:22:20.688Z,13.51
2022-10-22T21:24:47.398Z,13.38
2022-10-22T21:27:14.149Z,13.37
2022-10-22T21:29:40.888Z,13.16
2022-10-22T21:32:07.647Z,13.25
2022-10-22T21:34:38.147Z,13.23
2022-10-22T21:37:05.807Z,13.39
2022-10-22T21:39:32.685Z,13.27
2022-10-22T21:41:59.451Z,13.32
2022-10-22T21:44:26.312Z,13.13
2022-10-22T21:46:53.091Z,13.46
2022-10-22T21:49:19.767Z,13.24
2022-10-22T21:51:46.468Z,13.18
2022-10-22T21:54:13.412Z,13.14
2022-10-22T21:56:41.703Z,13.19
2022-10-22T21:59:08.725Z,13.24
2022-10-22T22:01:35.789Z,13.00
2022-10-22T22:04:03.323Z,13.04
2022-10-22T22:06:33.529Z,13.08
2022-10-22T22:09:01.617Z,13.03
2022-10-22T22:11:29.335Z,13.01
2022-10-22T22:13:58.180Z,12.90
2022-10-22T22:16:28.738Z,12.85
2022-10-22T22:18:58.054Z,12.69
2022-10-22T22:21:25.034Z,12.75
2022-10-22T22:23:51.876Z,12.76
2022-10-22T22:26:25.342Z,12.98
2022-10-22T22:28:56.082Z,12.85
2022-10-22T22:31:25.828Z,12.85
2022-10-22T22:34:08.488Z,12.82
2022-10-22T22:36:38.063Z,12.61
2022-10-22T22:39:06.770Z,12.53
2022-10-22T22:41:33.506Z,12.61
2022-10-22T22:44:00.347Z,12.61
2022-10-22T22:46:27.224Z,12.73
2022-10-22T22:48:54.161Z,12.81
2022-10-22T22:51:21.034Z,12.64
2022-10-22T22:53:48.056Z,12.69
2022-10-22T22:56:16.935Z,12.57
2022-10-22T22:58:44.155Z,12.86
2022-10-22T23:01:25.774Z,12.78
2022-10-22T23:03:56.361Z,12.67
2022-10-22T23:06:26.225Z,12.77
2022-10-22T23:08:54.331Z,12.76
2022-10-22T23:11:22.769Z,12.42
2022-10-22T23:13:53.570Z,12.68
2022-10-22T23:16:22.512Z,12.67
2022-10-22T23:18:50.171Z,12.71
2022-10-22T23:21:20.855Z,12.92
2022-10-22T23:23:53.651Z,13.12
2022-10-22T23:26:24.341Z,13.12
2022-10-22T23:28:51.118Z,13.09
2022-10-22T23:31:19.911Z,13.15
2022-10-22T23:33:46.631Z,13.00
2022-10-22T23:36:13.780Z,12.96
2022-10-22T23:38:41.169Z,13.18
2022-10-22T23:41:09.375Z,13.02
2022-10-22T23:43:36.743Z,13.03
2022-10-22T23:46:09.831Z,12.88
2022-10-22T23:48:37.850Z,12.84
2022-10-22T23:51:10.195Z,12.98
2022-10-22T23:53:37.219Z,12.74
2022-10-22T23:56:06.391Z,12.54
2022-10-22T23:58:34.925Z,12.56
